Time,TemperatureF,DewpointF,PressureIn,WindDirection,WindDirectionDegrees,WindSpeedMPH,WindSpeedGustMPH,Humidity,HourlyPrecipIn,Conditions,Clouds,dailyrainin,SoftwareType,DateUTC
2013-05-21 00:01:00,69.5,68.3,30.03,SE,146,5.0,7.0,96,0.00,,---,0.39,VWS V14.01,2013-05-21 04:01:00,
2013-05-21 00:06:00,69.4,68.2,30.03,ESE,108,3.0,5.0,96,0.00,,---,0.00,VWS V14.01,2013-05-21 04:06:00,
2013-05-21 00:11:00,69.3,68.1,30.03,ESE,117,4.0,6.0,96,0.00,,---,0.00,VWS V14.01,2013-05-21 04:11:00,
2013-05-21 00:16:00,69.2,68.0,30.03,SSE,165,4.0,4.0,96,0.00,,---,0.00,VWS V14.01,2013-05-21 04:16:00,
2013-05-21 00:21:00,69.1,67.9,30.03,SSE,155,3.0,5.0,96,0.00,,---,0.00,VWS V14.01,2013-05-21 04:21:00,
2013-05-21 00:26:00,69.0,67.8,30.03,SW,219,0.0,6.0,96,0.00,,---,0.00,VWS V14.01,2013-05-21 04:26:00,
2013-05-21 00:31:00,68.9,67.7,30.03,SSE,166,3.0,4.0,96,0.00,,---,0.00,VWS V14.01,2013-05-21 04:31:00,
2013-05-21 00:36:00,68.8,67.6,30.03,SE,139,3.0,4.0,96,0.00,,---,0.00,VWS V14.01,2013-05-21 04:36:00,
2013-05-21 00:41:00,68.7,67.5,30.03,SSE,153,3.0,4.0,96,0.00,,---,0.00,VWS V14.01,2013-05-21 04:41:00,
2013-05-21 00:46:00,68.5,67.3,30.03,SSE,150,4.0,4.0,96,0.00,,---,0.00,VWS V14.01,2013-05-21 04:46:00,
2013-05-21 00:51:00,68.5,67.3,30.03,SSE,154,3.0,4.0,96,0.00,,---,0.00,VWS V14.01,2013-05-21 04:51:00,
2013-05-21 00:57:00,68.4,67.2,30.03,SE,141,4.0,4.0,96,0.00,,---,0.00,VWS V14.01,2013-05-21 04:57:00,
2013-05-21 01:02:00,68.3,67.1,30.03,South,188,3.0,3.0,96,0.00,,---,0.00,VWS V14.01,2013-05-21 05:02:00,
2013-05-21 01:07:00,68.1,66.9,30.02,SSW,192,2.0,4.0,96,0.00,,---,0.00,VWS V14.01,2013-05-21 05:07:00,
2013-05-21 01:12:00,68.1,66.9,30.02,SSE,154,3.0,5.0,96,0.00,,---,0.00,VWS V14.01,2013-05-21 05:12:00,
2013-05-21 01:17:00,68.0,66.8,30.02,South,183,2.0,4.0,96,0.00,,---,0.00,VWS V14.01,2013-05-21 05:17:00,
2013-05-21 01:22:00,68.0,66.8,30.02,SSE,152,3.0,5.0,96,0.00,,---,0.00,VWS V14.01,2013-05-21 05:22:00,
2013-05-21 01:27:00,67.9,66.7,30.02,SSE,159,3.0,4.0,96,0.00,,---,0.00,VWS V14.01,2013-05-21 05:27:00,
2013-05-21 01:32:00,67.9,66.7,30.02,SSE,165,3.0,3.0,96,0.00,,---,0.00,VWS V14.01,2013-05-21 05:32:00,
2013-05-21 01:37:00,67.8,66.6,30.02,South,174,3.0,3.0,96,0.00,,---,0.00,VWS V14.01,2013-05-21 05:37:00,
2013-05-21 01:42:00,67.8,66.6,30.02,SSE,149,3.0,4.0,96,0.00,,---,0.00,VWS V14.01,2013-05-21 05:42:00,
2013-05-21 01:47:00,67.8,66.6,30.02,SSE,150,1.0,3.0,96,0.00,,---,0.00,VWS V14.01,2013-05-21 05:47:00,
2013-05-21 01:52:00,67.7,66.5,30.02,South,174,1.0,3.0,96,0.00,,---,0.00,VWS V14.01,2013-05-21 05:52:00,
2013-05-21 01:57:00,67.7,66.5,30.02,SE,130,2.0,3.0,96,0.00,,---,0.00,VWS V14.01,2013-05-21 05:57:00,
2013-05-21 02:02:00,67.7,66.5,30.01,SSE,162,1.0,3.0,96,0.00,,---,0.00,VWS V14.01,2013-05-21 06:02:00,
2013-05-21 02:07:00,67.7,66.5,30.01,South,186,1.0,2.0,96,0.00,,---,0.00,VWS V14.01,2013-05-21 06:07:00,
2013-05-21 02:12:00,67.7,66.5,30.01,SSE,156,1.0,1.0,96,0.00,,---,0.00,VWS V14.01,2013-05-21 06:12:00,
2013-05-21 02:17:00,67.7,66.5,30.01,SE,125,2.0,2.0,96,0.00,,---,0.00,VWS V14.01,2013-05-21 06:17:00,
2013-05-21 02:22:00,67.6,66.4,30.01,SE,143,2.0,3.0,96,0.00,,---,0.00,VWS V14.01,2013-05-21 06:22:00,
2013-05-21 02:27:00,67.6,66.4,30.01,SE,134,1.0,2.0,96,0.00,,---,0.00,VWS V14.01,2013-05-21 06:27:00,
2013-05-21 02:32:00,67.5,66.3,30.01,ESE,119,2.0,3.0,96,0.00,,---,0.00,VWS V14.01,2013-05-21 06:32:00,
2013-05-21 02:37:00,67.4,66.2,30.01,ESE,116,1.0,2.0,96,0.00,,---,0.00,VWS V14.01,2013-05-21 06:37:00,
2013-05-21 02:42:00,67.3,66.1,30.01,SE,129,3.0,3.0,96,0.00,,---,0.00,VWS V14.01,2013-05-21 06:42:00,
2013-05-21 02:47:00,67.2,66.0,30.01,SE,142,1.0,2.0,96,0.00,,---,0.00,VWS V14.01,2013-05-21 06:47:00,
2013-05-21 02:52:00,67.2,66.0,30.01,SSE,148,1.0,2.0,96,0.00,,---,0.00,VWS V14.01,2013-05-21 06:52:00,
2013-05-21 02:57:00,67.2,66.0,30.01,SSE,158,0.0,2.0,96,0.00,,---,0.00,VWS V14.01,2013-05-21 06:57:00,
2013-05-21 03:02:00,67.1,65.9,30.01,SSE,158,3.0,4.0,96,0.00,,---,0.00,VWS V14.01,2013-05-21 07:02:00,
2013-05-21 03:07:00,67.1,65.9,30.01,SSE,164,3.0,4.0,96,0.00,,---,0.00,VWS V14.01,2013-05-21 07:07:00,
2013-05-21 03:12:00,67.0,65.8,30.01,SSE,158,3.0,5.0,96,0.00,,---,0.00,VWS V14.01,2013-05-21 07:12:00,
2013-05-21 03:17:00,67.0,65.8,30.01,South,176,3.0,4.0,96,0.00,,---,0.00,VWS V14.01,2013-05-21 07:17:00,
2013-05-21 03:22:00,66.9,65.7,30.01,SSW,204,2.0,5.0,96,0.00,,---,0.00,VWS V14.01,2013-05-21 07:22:00,
2013-05-21 03:27:00,66.9,65.7,30.01,South,169,2.0,4.0,96,0.00,,---,0.00,VWS V14.01,2013-05-21 07:27:00,
2013-05-21 03:32:00,66.8,65.6,30.01,SSW,198,0.0,3.0,96,0.00,,---,0.00,VWS V14.01,2013-05-21 07:32:00,
2013-05-21 03:37:00,66.7,65.5,30.01,SSE,155,0.0,4.0,96,0.00,,---,0.00,VWS V14.01,2013-05-21 07:37:00,
2013-05-21 03:42:00,66.7,65.5,30.01,South,169,2.0,3.0,96,0.00,,---,0.00,VWS V14.01,2013-05-21 07:42:00,
2013-05-21 03:47:00,66.6,65.7,30.01,SSE,158,2.0,3.0,97,0.00,,---,0.00,VWS V14.01,2013-05-21 07:47:00,
2013-05-21 03:52:00,66.5,65.6,30.01,South,181,2.0,2.0,97,0.00,,---,0.00,VWS V14.01,2013-05-21 07:52:00,
2013-05-21 03:57:00,66.5,65.6,30.01,SE,140,2.0,4.0,97,0.00,,---,0.00,VWS V14.01,2013-05-21 07:57:00,
2013-05-21 04:02:00,66.4,65.5,30.01,SSW,210,2.0,2.0,97,0.00,,---,0.00,VWS V14.01,2013-05-21 08:02:00,
2013-05-21 04:07:00,66.4,65.5,30.01,SSW,204,1.0,2.0,97,0.00,,---,0.00,VWS V14.01,2013-05-21 08:07:00,
2013-05-21 04:12:00,66.3,65.4,30.01,SW,224,1.0,2.0,97,0.00,,---,0.00,VWS V14.01,2013-05-21 08:12:00,
2013-05-21 04:17:00,66.3,65.4,30.01,SW,228,1.0,3.0,97,0.00,,---,0.00,VWS V14.01,2013-05-21 08:17:00,
2013-05-21 04:22:00,66.3,65.4,30.01,WSW,243,3.0,4.0,97,0.00,,---,0.00,VWS V14.01,2013-05-21 08:22:00,
2013-05-21 04:27:00,66.3,65.4,30.02,SW,217,2.0,4.0,97,0.00,,---,0.00,VWS V14.01,2013-05-21 08:27:00,
2013-05-21 04:32:00,66.3,65.4,30.02,SW,222,3.0,3.0,97,0.00,,---,0.00,VWS V14.01,2013-05-21 08:32:00,
2013-05-21 04:37:00,66.2,65.3,30.02,SSW,193,1.0,2.0,97,0.00,,---,0.00,VWS V14.01,2013-05-21 08:37:00,
2013-05-21 04:42:00,66.2,65.3,30.02,South,183,2.0,2.0,97,0.00,,---,0.00,VWS V14.01,2013-05-21 08:42:00,
2013-05-21 04:47:00,66.1,65.2,30.02,SSW,210,1.0,2.0,97,0.00,,---,0.00,VWS V14.01,2013-05-21 08:47:00,
2013-05-21 04:53:00,66.0,65.1,30.02,SSW,200,0.0,2.0,97,0.00,,---,0.00,VWS V14.01,2013-05-21 08:53:00,
2013-05-21 04:58:00,65.9,65.0,30.02,SW,224,2.0,2.0,97,0.00,,---,0.00,VWS V14.01,2013-05-21 08:58:00,
2013-05-21 05:02:00,66.0,65.1,30.02,SW,214,1.0,3.0,97,0.00,,---,0.00,VWS V14.01,2013-05-21 09:02:00,
2013-05-21 05:07:00,66.0,65.1,30.02,SW,215,2.0,4.0,97,0.00,,---,0.00,VWS V14.01,2013-05-21 09:07:00,
2013-05-21 05:12:00,66.0,65.1,30.02,SW,233,2.0,6.0,97,0.00,,---,0.00,VWS V14.01,2013-05-21 09:12:00,
2013-05-21 05:18:00,66.1,65.2,30.02,SW,228,4.0,6.0,97,0.00,,---,0.00,VWS V14.01,2013-05-21 09:18:00,
2013-05-21 05:23:00,66.1,65.2,30.02,SW,228,3.0,4.0,97,0.00,,---,0.00,VWS V14.01,2013-05-21 09:23:00,
2013-05-21 05:28:00,66.2,65.3,30.02,SSW,213,2.0,4.0,97,0.00,,---,0.00,VWS V14.01,2013-05-21 09:28:00,
2013-05-21 05:33:00,66.3,65.4,30.02,SSW,212,3.0,7.0,97,0.00,,---,0.00,VWS V14.01,2013-05-21 09:33:00,
2013-05-21 05:38:00,66.3,65.4,30.02,WSW,239,4.0,5.0,97,0.00,,---,0.00,VWS V14.01,2013-05-21 09:38:00,
2013-05-21 05:43:00,66.3,65.4,30.02,SSW,204,4.0,5.0,97,0.00,,---,0.00,VWS V14.01,2013-05-21 09:43:00,
2013-05-21 05:48:00,66.3,65.4,30.02,WSW,243,2.0,4.0,97,0.00,,---,0.00,VWS V14.01,2013-05-21 09:48:00,
2013-05-21 05:53:00,66.3,65.4,30.02,SW,228,0.0,2.0,97,0.00,,---,0.00,VWS V14.01,2013-05-21 09:53:00,
2013-05-21 05:58:00,66.3,65.4,30.02,SSW,195,1.0,2.0,97,0.00,,---,0.00,VWS V14.01,2013-05-21 09:58:00,
2013-05-21 06:03:00,66.2,65.3,30.02,SSE,148,2.0,3.0,97,0.00,,---,0.00,VWS V14.01,2013-05-21 10:03:00,
2013-05-21 06:08:00,66.1,65.2,30.02,South,191,1.0,2.0,97,0.00,,---,0.00,VWS V14.01,2013-05-21 10:08:00,
2013-05-21 06:13:00,66.1,65.2,30.02,SSW,193,0.0,2.0,97,0.00,,---,0.00,VWS V14.01,2013-05-21 10:13:00,
2013-05-21 06:18:00,66.1,65.2,30.03,SSW,197,1.0,2.0,97,0.00,,---,0.00,VWS V14.01,2013-05-21 10:18:00,
2013-05-21 06:23:00,66.1,65.2,30.03,SSW,197,1.0,2.0,97,0.00,,---,0.00,VWS V14.01,2013-05-21 10:23:00,
2013-05-21 06:28:00,66.1,65.2,30.03,SW,221,0.0,2.0,97,0.00,,---,0.00,VWS V14.01,2013-05-21 10:28:00,
2013-05-21 06:33:00,66.0,65.1,30.04,SSW,203,2.0,2.0,97,0.00,,---,0.00,VWS V14.01,2013-05-21 10:33:00,
2013-05-21 06:38:00,66.0,65.1,30.04,SW,214,0.0,1.0,97,0.00,,---,0.00,VWS V14.01,2013-05-21 10:38:00,
2013-05-21 06:43:00,66.0,65.1,30.04,SSW,193,0.0,1.0,97,0.00,,---,0.00,VWS V14.01,2013-05-21 10:43:00,
2013-05-21 06:48:00,66.0,65.1,30.05,SSE,148,0.0,1.0,97,0.00,,---,0.00,VWS V14.01,2013-05-21 10:48:00,
2013-05-21 06:53:00,66.1,65.2,30.05,SE,146,0.0,1.0,97,0.00,,---,0.00,VWS V14.01,2013-05-21 10:53:00,
2013-05-21 06:58:00,66.1,65.2,30.05,SSE,156,0.0,1.0,97,0.00,,---,0.00,VWS V14.01,2013-05-21 10:58:00,
2013-05-21 07:03:00,66.2,65.3,30.05,South,174,1.0,3.0,97,0.00,,---,0.00,VWS V14.01,2013-05-21 11:03:00,
2013-05-21 07:08:00,66.3,65.4,30.05,SSW,208,0.0,2.0,97,0.00,,---,0.00,VWS V14.01,2013-05-21 11:08:00,
2013-05-21 07:13:00,66.3,65.4,30.05,SSE,161,0.0,1.0,97,0.00,,---,0.00,VWS V14.01,2013-05-21 11:13:00,
2013-05-21 07:19:00,66.4,65.5,30.05,SE,141,1.0,2.0,97,0.00,,---,0.00,VWS V14.01,2013-05-21 11:19:00,
2013-05-21 07:23:00,66.5,65.9,30.05,SE,142,2.0,2.0,98,0.00,,---,0.00,VWS V14.01,2013-05-21 11:23:00,
2013-05-21 07:29:00,66.6,66.0,30.05,SE,137,2.0,3.0,98,0.00,,---,0.00,VWS V14.01,2013-05-21 11:29:00,
2013-05-21 07:34:00,66.7,66.1,30.05,ESE,118,3.0,5.0,98,0.00,,---,0.00,VWS V14.01,2013-05-21 11:34:00,
2013-05-21 07:39:00,66.8,66.2,30.05,ESE,110,3.0,3.0,98,0.00,,---,0.00,VWS V14.01,2013-05-21 11:39:00,
2013-05-21 07:44:00,66.8,66.2,30.05,SE,131,0.0,4.0,98,0.00,,---,0.00,VWS V14.01,2013-05-21 11:44:00,
2013-05-21 07:49:00,66.9,66.3,30.05,SE,138,3.0,3.0,98,0.00,,---,0.00,VWS V14.01,2013-05-21 11:49:00,
2013-05-21 07:54:00,67.0,66.4,30.06,ESE,113,2.0,3.0,98,0.00,,---,0.00,VWS V14.01,2013-05-21 11:54:00,
2013-05-21 07:59:00,67.0,66.4,30.05,ESE,111,2.0,5.0,98,0.00,,---,0.00,VWS V14.01,2013-05-21 11:59:00,
2013-05-21 08:04:00,67.1,66.5,30.05,East,81,2.0,5.0,98,0.00,,---,0.00,VWS V14.01,2013-05-21 12:04:00,
2013-05-21 08:09:00,67.1,66.5,30.05,SE,130,3.0,5.0,98,0.00,,---,0.00,VWS V14.01,2013-05-21 12:09:00,
2013-05-21 08:14:00,67.2,66.6,30.05,SE,142,4.0,4.0,98,0.00,,---,0.00,VWS V14.01,2013-05-21 12:14:00,
2013-05-21 08:19:00,67.3,66.7,30.06,SSE,149,2.0,3.0,98,0.00,,---,0.00,VWS V14.01,2013-05-21 12:19:00,
2013-05-21 08:24:00,67.5,66.9,30.06,SE,145,2.0,3.0,98,0.00,,---,0.00,VWS V14.01,2013-05-21 12:24:00,
2013-05-21 08:29:00,67.5,66.9,30.06,South,177,2.0,4.0,98,0.00,,---,0.00,VWS V14.01,2013-05-21 12:29:00,
2013-05-21 08:34:00,67.7,67.1,30.06,SSW,205,2.0,3.0,98,0.00,,---,0.00,VWS V14.01,2013-05-21 12:34:00,
2013-05-21 08:39:00,67.7,67.1,30.06,SW,214,1.0,2.0,98,0.00,,---,0.00,VWS V14.01,2013-05-21 12:39:00,
2013-05-21 08:44:00,67.8,67.2,30.06,SW,219,3.0,4.0,98,0.00,,---,0.00,VWS V14.01,2013-05-21 12:44:00,
2013-05-21 08:49:00,67.9,67.3,30.06,SW,219,0.0,2.0,98,0.00,,---,0.00,VWS V14.01,2013-05-21 12:49:00,
2013-05-21 08:54:00,68.1,67.5,30.06,SSW,204,1.0,2.0,98,0.00,,---,0.00,VWS V14.01,2013-05-21 12:54:00,
2013-05-21 08:59:00,68.0,67.4,30.06,South,169,2.0,5.0,98,0.00,,---,0.00,VWS V14.01,2013-05-21 12:59:00,
2013-05-21 09:04:00,68.1,67.5,30.06,SSW,208,3.0,4.0,98,0.00,,---,0.00,VWS V14.01,2013-05-21 13:04:00,
2013-05-21 09:09:00,68.0,67.1,30.06,SSW,203,3.0,4.0,97,0.00,,---,0.00,VWS V14.01,2013-05-21 13:09:00,
2013-05-21 09:14:00,68.0,67.1,30.06,SSW,194,3.0,4.0,97,0.00,,---,0.00,VWS V14.01,2013-05-21 13:14:00,
2013-05-21 09:19:00,68.0,67.1,30.06,SSW,203,1.0,3.0,97,0.00,,---,0.00,VWS V14.01,2013-05-21 13:19:00,
2013-05-21 09:24:00,68.2,67.6,30.06,SSE,159,1.0,3.0,98,0.00,,---,0.00,VWS V14.01,2013-05-21 13:24:00,
2013-05-21 09:29:00,68.4,67.8,30.06,SW,228,1.0,2.0,98,0.00,,---,0.00,VWS V14.01,2013-05-21 13:29:00,
2013-05-21 09:34:00,68.5,67.9,30.06,SSW,204,1.0,2.0,98,0.00,,---,0.00,VWS V14.01,2013-05-21 13:34:00,
2013-05-21 09:39:00,68.6,68.0,30.06,SSE,152,4.0,4.0,98,0.00,,---,0.00,VWS V14.01,2013-05-21 13:39:00,
2013-05-21 09:44:00,68.8,67.9,30.06,South,172,2.0,4.0,97,0.00,,---,0.00,VWS V14.01,2013-05-21 13:44:00,
2013-05-21 09:49:00,68.9,68.0,30.06,SSW,193,2.0,4.0,97,0.00,,---,0.00,VWS V14.01,2013-05-21 13:49:00,
2013-05-21 09:54:00,69.2,68.3,30.05,SE,125,1.0,3.0,97,0.01,,---,0.01,VWS V14.01,2013-05-21 13:54:00,
2013-05-21 09:59:00,69.5,68.6,30.05,SSW,193,2.0,5.0,97,0.01,,---,0.01,VWS V14.01,2013-05-21 13:59:00,
2013-05-21 10:04:00,69.8,68.9,30.05,SSE,150,2.0,4.0,97,0.01,,---,0.01,VWS V14.01,2013-05-21 14:04:00,
2013-05-21 10:09:00,70.1,68.9,30.05,SW,233,0.0,4.0,96,0.01,,---,0.01,VWS V14.01,2013-05-21 14:09:00,
2013-05-21 10:14:00,70.7,69.5,30.06,SW,224,1.0,3.0,96,0.01,,---,0.01,VWS V14.01,2013-05-21 14:14:00,
2013-05-21 10:19:00,71.3,69.8,30.06,WSW,255,0.0,2.0,95,0.01,,---,0.01,VWS V14.01,2013-05-21 14:19:00,
2013-05-21 10:24:00,71.8,70.0,30.06,SE,135,2.0,4.0,94,0.01,,---,0.01,VWS V14.01,2013-05-21 14:24:00,
2013-05-21 10:29:00,72.4,69.9,30.06,SSW,200,1.0,5.0,92,0.01,,---,0.01,VWS V14.01,2013-05-21 14:29:00,
2013-05-21 10:34:00,73.1,69.7,30.06,SW,232,1.0,7.0,89,0.01,,---,0.01,VWS V14.01,2013-05-21 14:34:00,
2013-05-21 10:39:00,73.3,69.9,30.06,SE,124,1.0,4.0,89,0.01,,---,0.01,VWS V14.01,2013-05-21 14:39:00,
2013-05-21 10:44:00,73.5,69.7,30.06,SSE,158,3.0,4.0,88,0.01,,---,0.01,VWS V14.01,2013-05-21 14:44:00,
2013-05-21 10:49:00,73.7,69.9,30.07,ESE,110,0.0,4.0,88,0.01,,---,0.01,VWS V14.01,2013-05-21 14:49:00,
2013-05-21 10:54:00,73.9,70.1,30.07,West,259,0.0,3.0,88,0.01,,---,0.01,VWS V14.01,2013-05-21 14:54:00,
2013-05-21 10:59:00,74.2,70.1,30.07,SW,232,2.0,4.0,87,0.00,,---,0.01,VWS V14.01,2013-05-21 14:59:00,
2013-05-21 11:04:00,74.7,70.6,30.07,SSE,150,1.0,3.0,87,0.00,,---,0.01,VWS V14.01,2013-05-21 15:04:00,
2013-05-21 11:09:00,75.3,70.8,30.07,SE,127,4.0,5.0,86,0.00,,---,0.01,VWS V14.01,2013-05-21 15:09:00,
2013-05-21 11:14:00,75.5,71.0,30.06,SE,146,2.0,6.0,86,0.00,,---,0.01,VWS V14.01,2013-05-21 15:14:00,
2013-05-21 11:20:00,75.9,70.4,30.06,NNE,22,0.0,4.0,83,0.00,,---,0.01,VWS V14.01,2013-05-21 15:20:00,
2013-05-21 11:25:00,76.7,70.8,30.06,SSW,201,3.0,5.0,82,0.00,,---,0.01,VWS V14.01,2013-05-21 15:25:00,
2013-05-21 11:30:00,77.4,70.8,30.06,SSE,165,0.0,3.0,80,0.00,,---,0.01,VWS V14.01,2013-05-21 15:30:00,
2013-05-21 11:35:00,77.8,71.1,30.06,SSE,158,2.0,4.0,80,0.00,,---,0.01,VWS V14.01,2013-05-21 15:35:00,
2013-05-21 11:40:00,77.7,71.0,30.06,SSW,208,4.0,4.0,80,0.00,,---,0.01,VWS V14.01,2013-05-21 15:40:00,
2013-05-21 11:45:00,77.6,71.3,30.06,WSW,252,3.0,6.0,81,0.00,,---,0.01,VWS V14.01,2013-05-21 15:45:00,
2013-05-21 11:50:00,77.7,71.0,30.06,SW,232,2.0,3.0,80,0.00,,---,0.01,VWS V14.01,2013-05-21 15:50:00,
2013-05-21 11:55:00,78.1,71.4,30.06,SW,221,2.0,4.0,80,0.00,,---,0.01,VWS V14.01,2013-05-21 15:55:00,
2013-05-21 12:00:00,78.5,71.8,30.06,SSE,149,3.0,3.0,80,0.00,,---,0.01,VWS V14.01,2013-05-21 16:00:00,
2013-05-21 12:05:00,78.6,71.6,30.05,SSE,160,1.0,5.0,79,0.00,,---,0.01,VWS V14.01,2013-05-21 16:05:00,
2013-05-21 12:10:00,78.3,71.3,30.05,East,100,4.0,7.0,79,0.00,,---,0.01,VWS V14.01,2013-05-21 16:10:00,
2013-05-21 12:15:00,78.4,71.3,30.05,SSE,147,4.0,7.0,79,0.00,,---,0.01,VWS V14.01,2013-05-21 16:15:00,
2013-05-21 12:20:00,78.6,71.9,30.05,SE,132,2.0,5.0,80,0.00,,---,0.01,VWS V14.01,2013-05-21 16:20:00,
2013-05-21 12:25:00,79.3,71.5,30.05,West,263,2.0,6.0,77,0.00,,---,0.01,VWS V14.01,2013-05-21 16:25:00,
2013-05-21 12:30:00,79.4,71.2,30.04,SW,228,3.0,7.0,76,0.00,,---,0.01,VWS V14.01,2013-05-21 16:30:00,
2013-05-21 12:35:00,79.6,71.8,30.04,SSE,156,3.0,5.0,77,0.00,,---,0.01,VWS V14.01,2013-05-21 16:35:00,
2013-05-21 12:40:00,79.3,71.5,30.04,SE,132,2.0,6.0,77,0.00,,---,0.01,VWS V14.01,2013-05-21 16:40:00,
2013-05-21 12:45:00,79.6,71.0,30.04,SSE,160,5.0,5.0,75,0.00,,---,0.01,VWS V14.01,2013-05-21 16:45:00,
2013-05-21 12:50:00,80.1,71.1,30.03,SE,132,3.0,6.0,74,0.00,,---,0.01,VWS V14.01,2013-05-21 16:50:00,
2013-05-21 12:55:00,80.6,71.6,30.03,SSW,194,3.0,6.0,74,0.00,,---,0.01,VWS V14.01,2013-05-21 16:55:00,
2013-05-21 13:00:00,80.8,71.3,30.03,SSE,159,3.0,6.0,73,0.00,,---,0.01,VWS V14.01,2013-05-21 17:00:00,
2013-05-21 13:05:00,81.0,71.1,30.03,SSW,199,3.0,7.0,72,0.00,,---,0.01,VWS V14.01,2013-05-21 17:05:00,
2013-05-21 13:10:00,81.0,71.9,30.03,East,100,0.0,7.0,74,0.00,,---,0.01,VWS V14.01,2013-05-21 17:10:00,
2013-05-21 13:15:00,81.8,72.7,30.02,SE,139,3.0,7.0,74,0.00,,---,0.01,VWS V14.01,2013-05-21 17:15:00,
2013-05-21 13:20:00,82.5,72.2,30.02,SE,145,1.0,7.0,71,0.00,,---,0.01,VWS V14.01,2013-05-21 17:20:00,
2013-05-21 13:25:00,82.3,71.5,30.03,SE,134,2.0,6.0,70,0.00,,---,0.01,VWS V14.01,2013-05-21 17:25:00,
2013-05-21 13:30:00,82.5,71.7,30.02,SE,136,5.0,8.0,70,0.00,,---,0.01,VWS V14.01,2013-05-21 17:30:00,
2013-05-21 13:35:00,82.1,71.3,30.02,SSE,158,2.0,10.0,70,0.00,,---,0.01,VWS V14.01,2013-05-21 17:35:00,
2013-05-21 13:40:00,82.6,72.2,30.02,SE,139,3.0,6.0,71,0.00,,---,0.01,VWS V14.01,2013-05-21 17:40:00,
2013-05-21 13:45:00,82.7,71.5,30.01,ESE,117,4.0,6.0,69,0.00,,---,0.01,VWS V14.01,2013-05-21 17:45:00,
2013-05-21 13:50:00,81.7,71.0,30.01,SE,136,1.0,6.0,70,0.00,,---,0.01,VWS V14.01,2013-05-21 17:50:00,
2013-05-21 13:55:00,81.4,71.1,30.01,SSE,167,4.0,7.0,71,0.00,,---,0.01,VWS V14.01,2013-05-21 17:55:00,
2013-05-21 14:00:00,81.3,71.4,30.01,West,266,1.0,7.0,72,0.00,,---,0.01,VWS V14.01,2013-05-21 18:00:00,
2013-05-21 14:05:00,81.2,70.9,30.01,SW,219,2.0,5.0,71,0.00,,---,0.01,VWS V14.01,2013-05-21 18:05:00,
2013-05-21 14:10:00,81.3,71.4,30.01,SE,146,0.0,3.0,72,0.00,,---,0.01,VWS V14.01,2013-05-21 18:10:00,
2013-05-21 14:15:00,81.5,71.2,30.01,SE,145,0.0,0.0,71,0.00,,---,0.01,VWS V14.01,2013-05-21 18:15:00,
2013-05-21 14:20:00,81.5,72.0,30.00,WNW,297,1.0,5.0,73,0.00,,---,0.01,VWS V14.01,2013-05-21 18:20:00,
2013-05-21 14:25:00,81.1,71.6,30.01,NW,307,2.0,3.0,73,0.00,,---,0.01,VWS V14.01,2013-05-21 18:25:00,
2013-05-21 14:30:00,80.7,71.2,30.00,WNW,295,3.0,4.0,73,0.00,,---,0.01,VWS V14.01,2013-05-21 18:30:00,
2013-05-21 14:35:00,80.3,70.9,30.00,WSW,253,1.0,3.0,73,0.00,,---,0.01,VWS V14.01,2013-05-21 18:35:00,
2013-05-21 14:40:00,80.4,71.4,30.00,WSW,242,0.0,4.0,74,0.00,,---,0.01,VWS V14.01,2013-05-21 18:40:00,
2013-05-21 14:45:00,80.7,71.2,30.00,West,276,0.0,4.0,73,0.00,,---,0.01,VWS V14.01,2013-05-21 18:45:00,
2013-05-21 14:50:00,81.0,71.1,30.00,West,264,0.0,2.0,72,0.00,,---,0.01,VWS V14.01,2013-05-21 18:50:00,
2013-05-21 14:55:00,81.3,71.8,29.99,SW,219,2.0,2.0,73,0.00,,---,0.01,VWS V14.01,2013-05-21 18:55:00,
2013-05-21 15:00:00,81.4,71.1,30.00,SW,235,1.0,2.0,71,0.00,,---,0.01,VWS V14.01,2013-05-21 19:00:00,
2013-05-21 15:05:00,81.3,71.4,30.00,SW,222,3.0,5.0,72,0.00,,---,0.01,VWS V14.01,2013-05-21 19:05:00,
2013-05-21 15:10:00,81.1,71.6,30.00,SSW,204,0.0,3.0,73,0.00,,---,0.01,VWS V14.01,2013-05-21 19:10:00,
2013-05-21 15:15:00,80.9,71.8,30.00,West,280,1.0,3.0,74,0.00,,---,0.01,VWS V14.01,2013-05-21 19:15:00,
2013-05-21 15:20:00,80.9,71.8,29.99,WSW,249,3.0,3.0,74,0.00,,---,0.01,VWS V14.01,2013-05-21 19:20:00,
2013-05-21 15:25:00,80.7,72.0,29.99,South,191,2.0,5.0,75,0.00,,---,0.01,VWS V14.01,2013-05-21 19:25:00,
2013-05-21 15:30:00,80.1,73.0,29.99,ESE,118,3.0,6.0,79,0.00,,---,0.01,VWS V14.01,2013-05-21 19:30:00,
2013-05-21 15:35:00,78.9,72.9,29.99,SSE,149,3.0,5.0,82,0.00,,---,0.01,VWS V14.01,2013-05-21 19:35:00,
2013-05-21 15:40:00,77.9,72.3,29.98,SSE,155,7.0,13.0,83,0.00,,---,0.01,VWS V14.01,2013-05-21 19:40:00,
2013-05-21 15:45:00,77.2,71.3,29.98,South,178,12.0,13.0,82,0.00,,---,0.01,VWS V14.01,2013-05-21 19:45:00,
2013-05-21 15:50:00,76.3,70.1,29.99,South,180,8.0,12.0,81,0.00,,---,0.01,VWS V14.01,2013-05-21 19:50:00,
2013-05-21 15:55:00,74.6,68.8,30.00,ESE,102,19.0,21.0,82,0.00,,---,0.01,VWS V14.01,2013-05-21 19:55:00,
2013-05-21 16:00:00,73.2,68.1,29.99,South,174,4.0,18.0,84,0.00,,---,0.01,VWS V14.01,2013-05-21 20:00:00,
2013-05-21 16:06:00,72.7,67.9,29.99,SE,135,5.0,12.0,85,0.00,,---,0.01,VWS V14.01,2013-05-21 20:06:00,
2013-05-21 16:11:00,72.2,67.8,30.00,ESE,119,8.0,10.0,86,0.00,,---,0.01,VWS V14.01,2013-05-21 20:11:00,
2013-05-21 16:16:00,71.9,66.8,30.00,SSE,150,4.0,14.0,84,0.00,,---,0.01,VWS V14.01,2013-05-21 20:16:00,
2013-05-21 16:21:00,71.8,67.1,30.00,SE,133,6.0,8.0,85,0.00,,---,0.01,VWS V14.01,2013-05-21 20:21:00,
2013-05-21 16:26:00,71.7,65.9,30.01,ENE,69,1.0,18.0,82,0.00,,---,0.01,VWS V14.01,2013-05-21 20:26:00,
2013-05-21 16:31:00,71.8,66.0,30.00,ENE,70,2.0,9.0,82,0.01,,---,0.02,VWS V14.01,2013-05-21 20:31:00,
2013-05-21 16:36:00,70.5,65.8,30.00,NE,46,4.0,11.0,85,0.04,,---,0.05,VWS V14.01,2013-05-21 20:36:00,
2013-05-21 16:41:00,69.6,65.2,29.99,ENE,65,2.0,5.0,86,0.05,,---,0.06,VWS V14.01,2013-05-21 20:41:00,
2013-05-21 16:46:00,69.1,65.7,30.00,NNE,25,0.0,13.0,89,0.06,,---,0.07,VWS V14.01,2013-05-21 20:46:00,
2013-05-21 16:51:00,68.8,66.1,30.01,South,181,2.0,9.0,91,0.06,,---,0.07,VWS V14.01,2013-05-21 20:51:00,
2013-05-21 16:56:00,68.7,66.3,30.01,WNW,294,3.0,4.0,92,0.06,,---,0.07,VWS V14.01,2013-05-21 20:56:00,
2013-05-21 17:01:00,68.5,66.1,30.01,South,185,2.0,3.0,92,0.07,,---,0.08,VWS V14.01,2013-05-21 21:01:00,
2013-05-21 17:06:00,68.5,66.4,30.00,SSE,155,1.0,3.0,93,0.07,,---,0.08,VWS V14.01,2013-05-21 21:06:00,
2013-05-21 17:11:00,68.4,66.0,30.00,SE,141,1.0,3.0,92,0.07,,---,0.08,VWS V14.01,2013-05-21 21:11:00,
2013-05-21 17:16:00,68.6,66.2,30.00,SSE,149,1.0,3.0,92,0.07,,---,0.08,VWS V14.01,2013-05-21 21:16:00,
2013-05-21 17:21:00,68.7,66.3,29.99,SSW,200,1.0,3.0,92,0.07,,---,0.08,VWS V14.01,2013-05-21 21:21:00,
2013-05-21 17:26:00,68.8,66.7,29.99,SSW,208,2.0,4.0,93,0.07,,---,0.08,VWS V14.01,2013-05-21 21:26:00,
2013-05-21 17:31:00,68.9,66.5,29.99,SSW,195,1.0,5.0,92,0.07,,---,0.08,VWS V14.01,2013-05-21 21:31:00,
2013-05-21 17:36:00,68.9,66.2,29.99,ESE,121,3.0,4.0,91,0.06,,---,0.08,VWS V14.01,2013-05-21 21:36:00,
2013-05-21 17:41:00,69.2,66.5,29.98,ESE,113,3.0,6.0,91,0.03,,---,0.08,VWS V14.01,2013-05-21 21:41:00,
2013-05-21 17:46:00,69.5,66.8,29.99,WSW,239,1.0,4.0,91,0.02,,---,0.08,VWS V14.01,2013-05-21 21:46:00,
2013-05-21 17:51:00,69.7,66.6,29.98,South,176,3.0,4.0,90,0.01,,---,0.08,VWS V14.01,2013-05-21 21:51:00,
2013-05-21 17:56:00,70.1,67.0,29.97,South,172,1.0,5.0,90,0.01,,---,0.08,VWS V14.01,2013-05-21 21:56:00,
2013-05-21 18:01:00,70.4,67.3,29.97,SSE,158,0.0,4.0,90,0.01,,---,0.08,VWS V14.01,2013-05-21 22:01:00,
2013-05-21 18:06:00,70.7,67.6,29.97,WSW,242,1.0,3.0,90,0.00,,---,0.08,VWS V14.01,2013-05-21 22:06:00,
2013-05-21 18:11:00,70.8,67.7,29.97,WSW,248,1.0,3.0,90,0.00,,---,0.08,VWS V14.01,2013-05-21 22:11:00,
2013-05-21 18:16:00,71.1,68.0,29.97,SSW,208,0.0,0.0,90,0.00,,---,0.08,VWS V14.01,2013-05-21 22:16:00,
2013-05-21 18:21:00,71.4,68.0,29.97,SW,224,0.0,0.0,89,0.00,,---,0.08,VWS V14.01,2013-05-21 22:21:00,
2013-05-21 18:26:00,71.6,68.5,29.97,WNW,282,0.0,0.0,90,0.00,,---,0.08,VWS V14.01,2013-05-21 22:26:00,
2013-05-21 18:31:00,71.9,68.8,29.97,SE,138,1.0,1.0,90,0.00,,---,0.08,VWS V14.01,2013-05-21 22:31:00,
2013-05-21 18:36:00,72.0,68.3,29.96,SE,146,5.0,5.0,88,0.00,,---,0.08,VWS V14.01,2013-05-21 22:36:00,
2013-05-21 18:41:00,72.1,69.0,29.96,SE,146,4.0,5.0,90,0.00,,---,0.08,VWS V14.01,2013-05-21 22:41:00,
2013-05-21 18:46:00,72.0,68.9,29.96,SSE,155,4.0,4.0,90,0.00,,---,0.08,VWS V14.01,2013-05-21 22:46:00,
2013-05-21 18:51:00,71.9,69.1,29.96,SE,129,6.0,7.0,91,0.00,,---,0.08,VWS V14.01,2013-05-21 22:51:00,
2013-05-21 18:56:00,71.7,68.9,29.96,SE,138,5.0,5.0,91,0.00,,---,0.08,VWS V14.01,2013-05-21 22:56:00,
2013-05-21 19:01:00,71.6,68.8,29.96,SE,146,4.0,4.0,91,0.00,,---,0.08,VWS V14.01,2013-05-21 23:01:00,
2013-05-21 19:06:00,71.6,68.8,29.97,SSE,150,2.0,3.0,91,0.00,,---,0.08,VWS V14.01,2013-05-21 23:06:00,
2013-05-21 19:11:00,71.5,68.7,29.97,SE,146,3.0,3.0,91,0.00,,---,0.08,VWS V14.01,2013-05-21 23:11:00,
2013-05-21 19:16:00,71.5,68.7,29.97,SW,226,2.0,3.0,91,0.00,,---,0.08,VWS V14.01,2013-05-21 23:16:00,
2013-05-21 19:21:00,71.6,69.2,29.97,SE,133,1.0,2.0,92,0.00,,---,0.08,VWS V14.01,2013-05-21 23:21:00,
2013-05-21 19:26:00,71.6,69.2,29.97,ESE,115,1.0,2.0,92,0.00,,---,0.08,VWS V14.01,2013-05-21 23:26:00,
2013-05-21 19:31:00,71.5,69.1,29.97,ESE,112,1.0,2.0,92,0.00,,---,0.08,VWS V14.01,2013-05-21 23:31:00,
2013-05-21 19:36:00,71.3,68.9,29.97,SE,129,3.0,4.0,92,0.00,,---,0.08,VWS V14.01,2013-05-21 23:36:00,
2013-05-21 19:41:00,71.3,68.9,29.97,SSE,157,3.0,4.0,92,0.00,,---,0.08,VWS V14.01,2013-05-21 23:41:00,
2013-05-21 19:46:00,71.2,68.8,29.97,SE,143,1.0,2.0,92,0.00,,---,0.08,VWS V14.01,2013-05-21 23:46:00,
2013-05-21 19:51:00,71.2,68.8,29.97,SE,141,3.0,4.0,92,0.00,,---,0.08,VWS V14.01,2013-05-21 23:51:00,
2013-05-21 19:56:00,71.2,68.8,29.97,South,181,3.0,3.0,92,0.00,,---,0.08,VWS V14.01,2013-05-21 23:56:00,
2013-05-21 20:01:00,71.1,68.7,29.97,ESE,123,2.0,3.0,92,0.00,,---,0.08,VWS V14.01,2013-05-22 00:01:00,
2013-05-21 20:06:00,71.1,68.7,29.97,SE,146,3.0,3.0,92,0.00,,---,0.08,VWS V14.01,2013-05-22 00:06:00,
2013-05-21 20:11:00,71.0,68.6,29.97,SE,133,4.0,4.0,92,0.00,,---,0.08,VWS V14.01,2013-05-22 00:11:00,
2013-05-21 20:16:00,70.9,68.8,29.97,SE,129,3.0,5.0,93,0.00,,---,0.08,VWS V14.01,2013-05-22 00:16:00,
2013-05-21 20:22:00,70.8,68.7,29.97,SSE,149,3.0,3.0,93,0.00,,---,0.08,VWS V14.01,2013-05-22 00:22:00,
2013-05-21 20:27:00,70.7,68.6,29.97,SE,129,4.0,4.0,93,0.00,,---,0.08,VWS V14.01,2013-05-22 00:27:00,
2013-05-21 20:32:00,70.7,68.6,29.97,SSE,150,1.0,3.0,93,0.00,,---,0.08,VWS V14.01,2013-05-22 00:32:00,
2013-05-21 20:37:00,70.7,68.6,29.97,SE,141,2.0,2.0,93,0.00,,---,0.08,VWS V14.01,2013-05-22 00:37:00,
2013-05-21 20:42:00,70.6,68.5,29.97,SE,124,2.0,3.0,93,0.00,,---,0.08,VWS V14.01,2013-05-22 00:42:00,
2013-05-21 20:47:00,70.6,68.8,29.97,ESE,122,2.0,3.0,94,0.00,,---,0.08,VWS V14.01,2013-05-22 00:47:00,
2013-05-21 20:52:00,70.6,68.8,29.96,SE,132,3.0,4.0,94,0.00,,---,0.08,VWS V14.01,2013-05-22 00:52:00,
2013-05-21 20:57:00,70.6,68.8,29.97,SE,125,2.0,2.0,94,0.00,,---,0.08,VWS V14.01,2013-05-22 00:57:00,
2013-05-21 21:02:00,70.5,68.7,29.97,SE,129,2.0,3.0,94,0.00,,---,0.08,VWS V14.01,2013-05-22 01:02:00,
2013-05-21 21:07:00,70.5,68.7,29.97,SE,126,3.0,3.0,94,0.00,,---,0.08,VWS V14.01,2013-05-22 01:07:00,
2013-05-21 21:12:00,70.4,68.6,29.97,SE,134,2.0,3.0,94,0.00,,---,0.08,VWS V14.01,2013-05-22 01:12:00,
2013-05-21 21:17:00,70.4,68.9,29.98,South,172,3.0,4.0,95,0.00,,---,0.08,VWS V14.01,2013-05-22 01:17:00,
2013-05-21 21:22:00,70.4,68.9,29.98,South,184,2.0,3.0,95,0.00,,---,0.08,VWS V14.01,2013-05-22 01:22:00,
2013-05-21 21:27:00,70.2,68.7,29.99,South,172,3.0,4.0,95,0.00,,---,0.08,VWS V14.01,2013-05-22 01:27:00,
2013-05-21 21:32:00,70.1,68.6,29.99,SW,218,4.0,6.0,95,0.00,,---,0.08,VWS V14.01,2013-05-22 01:32:00,
2013-05-21 21:37:00,69.9,68.4,29.99,SSW,194,5.0,5.0,95,0.00,,---,0.08,VWS V14.01,2013-05-22 01:37:00,
2013-05-21 21:42:00,69.7,68.2,29.99,SSW,193,1.0,5.0,95,0.00,,---,0.08,VWS V14.01,2013-05-22 01:42:00,
2013-05-21 21:47:00,69.6,68.1,29.99,South,184,3.0,3.0,95,0.00,,---,0.08,VWS V14.01,2013-05-22 01:47:00,
2013-05-21 21:52:00,69.5,68.0,30.00,SSW,205,3.0,4.0,95,0.00,,---,0.08,VWS V14.01,2013-05-22 01:52:00,
2013-05-21 21:57:00,69.4,67.9,30.00,SSW,195,1.0,3.0,95,0.00,,---,0.08,VWS V14.01,2013-05-22 01:57:00,
2013-05-21 22:02:00,69.4,67.9,30.00,SSW,198,2.0,3.0,95,0.00,,---,0.08,VWS V14.01,2013-05-22 02:02:00,
2013-05-21 22:07:00,69.3,67.8,30.00,SSW,207,2.0,2.0,95,0.00,,---,0.08,VWS V14.01,2013-05-22 02:07:00,
2013-05-21 22:12:00,69.2,67.7,30.00,SSW,200,2.0,2.0,95,0.00,,---,0.08,VWS V14.01,2013-05-22 02:12:00,
2013-05-21 22:17:00,69.1,67.6,30.00,SW,219,1.0,2.0,95,0.00,,---,0.08,VWS V14.01,2013-05-22 02:17:00,
2013-05-21 22:22:00,69.0,67.5,30.01,SW,236,3.0,3.0,95,0.00,,---,0.08,VWS V14.01,2013-05-22 02:22:00,
2013-05-21 22:27:00,69.0,67.5,30.01,SW,217,1.0,3.0,95,0.00,,---,0.08,VWS V14.01,2013-05-22 02:27:00,
2013-05-21 22:32:00,68.9,67.4,30.01,South,190,2.0,3.0,95,0.00,,---,0.08,VWS V14.01,2013-05-22 02:32:00,
2013-05-21 22:37:00,68.8,67.3,30.01,SSE,159,3.0,3.0,95,0.00,,---,0.08,VWS V14.01,2013-05-22 02:37:00,
2013-05-21 22:42:00,68.8,67.3,30.01,SE,139,2.0,3.0,95,0.00,,---,0.08,VWS V14.01,2013-05-22 02:42:00,
2013-05-21 22:47:00,68.7,67.2,30.01,SSE,149,2.0,2.0,95,0.00,,---,0.08,VWS V14.01,2013-05-22 02:47:00,
2013-05-21 22:52:00,68.7,67.5,30.01,SE,146,2.0,3.0,96,0.00,,---,0.08,VWS V14.01,2013-05-22 02:52:00,
2013-05-21 22:57:00,68.7,67.5,30.01,SSE,153,2.0,3.0,96,0.00,,---,0.08,VWS V14.01,2013-05-22 02:57:00,
2013-05-21 23:02:00,68.6,67.4,30.01,SSE,165,2.0,4.0,96,0.00,,---,0.08,VWS V14.01,2013-05-22 03:02:00,
2013-05-21 23:07:00,68.4,67.2,30.01,SSE,158,4.0,5.0,96,0.00,,---,0.08,VWS V14.01,2013-05-22 03:07:00,
2013-05-21 23:12:00,68.3,67.1,30.01,South,170,5.0,6.0,96,0.00,,---,0.08,VWS V14.01,2013-05-22 03:12:00,
2013-05-21 23:17:00,68.2,67.0,30.01,South,180,3.0,4.0,96,0.00,,---,0.08,VWS V14.01,2013-05-22 03:17:00,
2013-05-21 23:22:00,68.1,66.9,30.00,SSW,207,3.0,5.0,96,0.00,,---,0.08,VWS V14.01,2013-05-22 03:22:00,
2013-05-21 23:27:00,68.0,66.8,30.01,SSW,210,1.0,4.0,96,0.00,,---,0.08,VWS V14.01,2013-05-22 03:27:00,
2013-05-21 23:32:00,67.9,66.7,30.01,SSE,155,2.0,2.0,96,0.00,,---,0.08,VWS V14.01,2013-05-22 03:32:00,
2013-05-21 23:37:00,67.9,66.7,30.02,South,173,1.0,3.0,96,0.00,,---,0.08,VWS V14.01,2013-05-22 03:37:00,
2013-05-21 23:42:00,67.8,66.6,30.01,SSW,200,3.0,3.0,96,0.00,,---,0.08,VWS V14.01,2013-05-22 03:42:00,
2013-05-21 23:47:00,67.8,66.6,30.02,SSW,204,1.0,2.0,96,0.00,,---,0.08,VWS V14.01,2013-05-22 03:47:00,
2013-05-21 23:52:00,67.8,66.6,30.02,SSW,204,0.0,2.0,96,0.00,,---,0.08,VWS V14.01,2013-05-22 03:52:00,
2013-05-21 23:57:00,67.7,66.5,30.02,SW,214,2.0,2.0,96,0.00,,---,0.08,VWS V14.01,2013-05-22 03:57:00,